Archival Weather

Chicago O'Hare International

Chicago, Illinois (KORD)

Report from: Friday, December 2, 2022 11:51 PM CST
Current time: Friday, June 21, 2024 3:24 AM CDT

Current weather – Weather history – Daily summaries
Weather forecast

Present weatherLight rain
Temperature10.0°C (50.0°F)
Wind chill6.9°C (44.4°F)
Dew point7.2°C (45.0°F)
Winds 14 kts (7.2 m/s, 16.1 mph) Southwest (230°)
Wind gusts 20 kts (10.3 m/s, 23 mph)
Visibility7 mi. (11.3 km)
Clouds Ceiling: Broken clouds 3,200 ft. (975 m)
Overcast 4,700 ft. (1,433 m)
Altimeter29.72 in.Hg (1006 mB)
PrecipitiationTrace
Precip. events Rain began 5:39 AM
Precip last 3 hoursTrace
Relative humidity83 %
Density altitude-232 ft. (-71 m)
Sea-level pressure100.7 kPa (1007 mB, 29.73 in.Hg)
Max temp last 6 hours11.7°C (53.1°F)
Min temp last 6 hours10.0°C (50.0°F)
Max temp last 24 hours11.7°C (53.1°F)
Min temp last 24 hours2.2°C (36.0°F)
Remarks Automated weather observing station with precipitation discriminator
Pressure rising more quickly
Flight conditions Visual Meteorological Conditions
Raw dataKORD 030551Z 23014G20KT 7SM -RA BKN032 OVC047 10/07 A2972 RMK AO2 RAB39 SLP068 P0000 60000 T01000072 10117 20100 401170022 53004
An error has occurred. This application may no longer respond until reloaded. Reload 🗙